sensor_id;sensor_type;location;lat;lon;timestamp;P1;durP1;ratioP1;P2;durP2;ratioP2
39050;SDS011;24805;55.852;37.644;2022-07-01T00:02:03;5.28;;;1.92;;
39050;SDS011;24805;55.852;37.644;2022-07-01T00:07:05;6.60;;;2.08;;
39050;SDS011;24805;55.852;37.644;2022-07-01T00:12:07;2.95;;;1.77;;
39050;SDS011;24805;55.852;37.644;2022-07-01T00:17:10;4.30;;;2.28;;
39050;SDS011;24805;55.852;37.644;2022-07-01T00:22:12;5.30;;;2.00;;
39050;SDS011;24805;55.852;37.644;2022-07-01T00:27:15;3.47;;;1.83;;
39050;SDS011;24805;55.852;37.644;2022-07-01T00:32:17;3.15;;;1.75;;
39050;SDS011;24805;55.852;37.644;2022-07-01T00:37:20;3.65;;;2.15;;
39050;SDS011;24805;55.852;37.644;2022-07-01T00:42:22;3.72;;;1.63;;
39050;SDS011;24805;55.852;37.644;2022-07-01T00:47:24;7.93;;;2.10;;
39050;SDS011;24805;55.852;37.644;2022-07-01T00:52:26;3.83;;;2.00;;
39050;SDS011;24805;55.852;37.644;2022-07-01T00:57:31;8.15;;;2.58;;
39050;SDS011;24805;55.852;37.644;2022-07-01T01:02:35;4.97;;;2.28;;
39050;SDS011;24805;55.852;37.644;2022-07-01T01:07:38;3.50;;;1.67;;
39050;SDS011;24805;55.852;37.644;2022-07-01T01:12:40;4.85;;;2.08;;
39050;SDS011;24805;55.852;37.644;2022-07-01T01:17:43;9.60;;;2.97;;
39050;SDS011;24805;55.852;37.644;2022-07-01T01:22:45;7.35;;;2.17;;
39050;SDS011;24805;55.852;37.644;2022-07-01T01:27:48;6.53;;;2.08;;
39050;SDS011;24805;55.852;37.644;2022-07-01T01:32:51;3.28;;;2.13;;
39050;SDS011;24805;55.852;37.644;2022-07-01T01:37:54;3.45;;;1.90;;
39050;SDS011;24805;55.852;37.644;2022-07-01T01:42:56;6.90;;;2.15;;
39050;SDS011;24805;55.852;37.644;2022-07-01T01:47:59;3.67;;;2.08;;
39050;SDS011;24805;55.852;37.644;2022-07-01T01:53:01;3.28;;;1.90;;
39050;SDS011;24805;55.852;37.644;2022-07-01T01:58:03;4.80;;;1.92;;
39050;SDS011;24805;55.852;37.644;2022-07-01T02:08:08;6.07;;;2.00;;
39050;SDS011;24805;55.852;37.644;2022-07-01T02:13:10;6.15;;;1.73;;
39050;SDS011;24805;55.852;37.644;2022-07-01T02:18:12;4.75;;;1.52;;
39050;SDS011;24805;55.852;37.644;2022-07-01T02:33:19;4.93;;;2.08;;
39050;SDS011;24805;55.852;37.644;2022-07-01T02:38:21;4.05;;;1.33;;
39050;SDS011;24805;55.852;37.644;2022-07-01T02:43:23;3.40;;;1.75;;
39050;SDS011;24805;55.852;37.644;2022-07-01T02:48:25;3.08;;;1.73;;
39050;SDS011;24805;55.852;37.644;2022-07-01T02:53:28;3.15;;;1.73;;
39050;SDS011;24805;55.852;37.644;2022-07-01T02:58:30;5.10;;;1.40;;
39050;SDS011;24805;55.852;37.644;2022-07-01T03:03:32;3.70;;;1.60;;
39050;SDS011;24805;55.852;37.644;2022-07-01T03:08:34;6.03;;;1.92;;
39050;SDS011;24805;55.852;37.644;2022-07-01T03:13:37;3.70;;;1.20;;
39050;SDS011;24805;55.852;37.644;2022-07-01T03:18:39;2.88;;;1.20;;
39050;SDS011;24805;55.852;37.644;2022-07-01T03:23:41;5.40;;;1.52;;
39050;SDS011;24805;55.852;37.644;2022-07-01T03:28:43;6.40;;;1.38;;
39050;SDS011;24805;55.852;37.644;2022-07-01T03:33:45;4.85;;;1.40;;
39050;SDS011;24805;55.852;37.644;2022-07-01T03:38:48;3.60;;;1.40;;
39050;SDS011;24805;55.852;37.644;2022-07-01T03:43:50;4.90;;;1.00;;
39050;SDS011;24805;55.852;37.644;2022-07-01T03:48:52;3.22;;;1.23;;
39050;SDS011;24805;55.852;37.644;2022-07-01T03:53:55;4.03;;;0.90;;
39050;SDS011;24805;55.852;37.644;2022-07-01T03:59:15;4.22;;;0.80;;
39050;SDS011;24805;55.852;37.644;2022-07-01T04:04:18;5.15;;;1.30;;
39050;SDS011;24805;55.852;37.644;2022-07-01T04:09:20;4.07;;;0.95;;
39050;SDS011;24805;55.852;37.644;2022-07-01T04:14:23;4.10;;;0.80;;
39050;SDS011;24805;55.852;37.644;2022-07-01T04:19:28;2.72;;;0.68;;
39050;SDS011;24805;55.852;37.644;2022-07-01T04:24:31;5.40;;;0.60;;
39050;SDS011;24805;55.852;37.644;2022-07-01T04:29:34;2.10;;;0.88;;
39050;SDS011;24805;55.852;37.644;2022-07-01T04:34:37;5.30;;;0.68;;
39050;SDS011;24805;55.852;37.644;2022-07-01T04:39:40;2.67;;;0.50;;
39050;SDS011;24805;55.852;37.644;2022-07-01T04:44:42;3.42;;;0.50;;
39050;SDS011;24805;55.852;37.644;2022-07-01T04:49:45;3.15;;;0.52;;
39050;SDS011;24805;55.852;37.644;2022-07-01T04:54:47;5.97;;;1.02;;
39050;SDS011;24805;55.852;37.644;2022-07-01T04:59:49;4.75;;;0.70;;
39050;SDS011;24805;55.852;37.644;2022-07-01T05:04:51;4.50;;;0.52;;
39050;SDS011;24805;55.852;37.644;2022-07-01T05:09:54;4.35;;;1.15;;
39050;SDS011;24805;55.852;37.644;2022-07-01T05:14:57;4.45;;;0.57;;
39050;SDS011;24805;55.852;37.644;2022-07-01T05:19:59;4.35;;;0.75;;
39050;SDS011;24805;55.852;37.644;2022-07-01T05:25:20;3.67;;;0.60;;
39050;SDS011;24805;55.852;37.644;2022-07-01T05:30:22;3.85;;;0.43;;
39050;SDS011;24805;55.852;37.644;2022-07-01T05:35:24;7.43;;;0.95;;
39050;SDS011;24805;55.852;37.644;2022-07-01T05:40:26;4.72;;;0.73;;
39050;SDS011;24805;55.852;37.644;2022-07-01T05:45:28;8.80;;;0.75;;
39050;SDS011;24805;55.852;37.644;2022-07-01T05:50:30;4.47;;;0.60;;
39050;SDS011;24805;55.852;37.644;2022-07-01T05:55:33;7.53;;;0.50;;
39050;SDS011;24805;55.852;37.644;2022-07-01T06:00:35;9.05;;;0.50;;
39050;SDS011;24805;55.852;37.644;2022-07-01T06:05:37;8.05;;;0.47;;
39050;SDS011;24805;55.852;37.644;2022-07-01T06:10:40;3.25;;;0.30;;
39050;SDS011;24805;55.852;37.644;2022-07-01T06:15:42;5.68;;;0.40;;
39050;SDS011;24805;55.852;37.644;2022-07-01T06:20:44;8.15;;;0.75;;
39050;SDS011;24805;55.852;37.644;2022-07-01T06:25:46;7.15;;;0.43;;
39050;SDS011;24805;55.852;37.644;2022-07-01T06:30:49;4.78;;;0.50;;
39050;SDS011;24805;55.852;37.644;2022-07-01T06:35:51;3.50;;;0.40;;
39050;SDS011;24805;55.852;37.644;2022-07-01T06:40:53;1.80;;;0.20;;
39050;SDS011;24805;55.852;37.644;2022-07-01T06:46:14;4.97;;;0.40;;
39050;SDS011;24805;55.852;37.644;2022-07-01T06:51:16;7.00;;;0.40;;
39050;SDS011;24805;55.852;37.644;2022-07-01T06:56:19;6.35;;;0.30;;
39050;SDS011;24805;55.852;37.644;2022-07-01T07:01:22;6.28;;;0.30;;
39050;SDS011;24805;55.852;37.644;2022-07-01T07:06:25;1.05;;;0.30;;
39050;SDS011;24805;55.852;37.644;2022-07-01T07:11:27;1.55;;;0.30;;
39050;SDS011;24805;55.852;37.644;2022-07-01T07:16:29;4.35;;;0.20;;
39050;SDS011;24805;55.852;37.644;2022-07-01T07:21:31;1.92;;;0.30;;
39050;SDS011;24805;55.852;37.644;2022-07-01T07:26:33;3.70;;;0.30;;
39050;SDS011;24805;55.852;37.644;2022-07-01T07:31:36;4.60;;;0.40;;
39050;SDS011;24805;55.852;37.644;2022-07-01T07:36:38;2.78;;;0.30;;
39050;SDS011;24805;55.852;37.644;2022-07-01T07:41:40;0.85;;;0.20;;
39050;SDS011;24805;55.852;37.644;2022-07-01T07:46:42;1.23;;;0.20;;
39050;SDS011;24805;55.852;37.644;2022-07-01T07:51:45;1.65;;;0.20;;
39050;SDS011;24805;55.852;37.644;2022-07-01T07:56:47;2.92;;;0.40;;
39050;SDS011;24805;55.852;37.644;2022-07-01T08:01:49;2.22;;;0.20;;
39050;SDS011;24805;55.852;37.644;2022-07-01T08:06:51;3.65;;;0.30;;
39050;SDS011;24805;55.852;37.644;2022-07-01T08:11:54;3.38;;;0.30;;
39050;SDS011;24805;55.852;37.644;2022-07-01T08:16:56;9.52;;;1.00;;
39050;SDS011;24805;55.852;37.644;2022-07-01T08:21:58;2.75;;;0.30;;
39050;SDS011;24805;55.852;37.644;2022-07-01T08:27:01;3.33;;;0.20;;
39050;SDS011;24805;55.852;37.644;2022-07-01T08:32:03;1.95;;;0.30;;
39050;SDS011;24805;55.852;37.644;2022-07-01T08:37:05;6.70;;;0.50;;
39050;SDS011;24805;55.852;37.644;2022-07-01T08:42:07;6.15;;;0.50;;
39050;SDS011;24805;55.852;37.644;2022-07-01T08:47:12;20.98;;;1.92;;
39050;SDS011;24805;55.852;37.644;2022-07-01T08:52:15;7.25;;;0.50;;
39050;SDS011;24805;55.852;37.644;2022-07-01T08:57:21;7.38;;;0.40;;
39050;SDS011;24805;55.852;37.644;2022-07-01T09:02:23;7.95;;;0.55;;
39050;SDS011;24805;55.852;37.644;2022-07-01T09:07:30;12.60;;;1.00;;
39050;SDS011;24805;55.852;37.644;2022-07-01T09:12:42;1.23;;;0.30;;
39050;SDS011;24805;55.852;37.644;2022-07-01T09:17:45;2.75;;;0.30;;
39050;SDS011;24805;55.852;37.644;2022-07-01T09:23:07;4.65;;;0.30;;
39050;SDS011;24805;55.852;37.644;2022-07-01T09:28:13;3.15;;;0.30;;
39050;SDS011;24805;55.852;37.644;2022-07-01T09:33:26;3.28;;;0.32;;
39050;SDS011;24805;55.852;37.644;2022-07-01T09:38:30;22.55;;;1.17;;
39050;SDS011;24805;55.852;37.644;2022-07-01T09:43:34;4.82;;;0.30;;
39050;SDS011;24805;55.852;37.644;2022-07-01T09:53:39;4.80;;;1.60;;
39050;SDS011;24805;55.852;37.644;2022-07-01T09:58:41;4.45;;;1.05;;
39050;SDS011;24805;55.852;37.644;2022-07-01T10:03:45;1.45;;;0.50;;
39050;SDS011;24805;55.852;37.644;2022-07-01T10:14:20;4.30;;;0.60;;
39050;SDS011;24805;55.852;37.644;2022-07-01T10:24:27;7.30;;;0.47;;
39050;SDS011;24805;55.852;37.644;2022-07-01T10:29:34;4.15;;;0.55;;
39050;SDS011;24805;55.852;37.644;2022-07-01T10:34:38;2.10;;;0.35;;
39050;SDS011;24805;55.852;37.644;2022-07-01T10:50:13;1.45;;;0.38;;
39050;SDS011;24805;55.852;37.644;2022-07-01T10:55:35;4.50;;;0.73;;
39050;SDS011;24805;55.852;37.644;2022-07-01T11:00:42;1.85;;;0.50;;
39050;SDS011;24805;55.852;37.644;2022-07-01T11:05:46;3.63;;;0.70;;
39050;SDS011;24805;55.852;37.644;2022-07-01T11:10:54;2.20;;;0.50;;
39050;SDS011;24805;55.852;37.644;2022-07-01T11:15:59;6.97;;;0.85;;
39050;SDS011;24805;55.852;37.644;2022-07-01T11:21:09;6.43;;;0.85;;
39050;SDS011;24805;55.852;37.644;2022-07-01T11:26:46;3.47;;;0.82;;
39050;SDS011;24805;55.852;37.644;2022-07-01T11:31:41;3.88;;;0.60;;
39050;SDS011;24805;55.852;37.644;2022-07-01T11:36:44;5.75;;;0.60;;
39050;SDS011;24805;55.852;37.644;2022-07-01T11:42:06;4.57;;;0.50;;
39050;SDS011;24805;55.852;37.644;2022-07-01T11:47:21;6.57;;;0.70;;
39050;SDS011;24805;55.852;37.644;2022-07-01T11:52:25;2.35;;;0.63;;
39050;SDS011;24805;55.852;37.644;2022-07-01T11:57:28;4.93;;;0.40;;
39050;SDS011;24805;55.852;37.644;2022-07-01T12:02:30;2.10;;;0.80;;
39050;SDS011;24805;55.852;37.644;2022-07-01T12:07:32;5.20;;;0.60;;
39050;SDS011;24805;55.852;37.644;2022-07-01T12:12:35;1.40;;;0.50;;
39050;SDS011;24805;55.852;37.644;2022-07-01T12:17:37;4.05;;;0.88;;
39050;SDS011;24805;55.852;37.644;2022-07-01T12:22:39;1.38;;;0.65;;
39050;SDS011;24805;55.852;37.644;2022-07-01T12:27:41;4.90;;;0.90;;
39050;SDS011;24805;55.852;37.644;2022-07-01T12:32:45;6.43;;;0.65;;
39050;SDS011;24805;55.852;37.644;2022-07-01T12:37:47;1.23;;;0.55;;
39050;SDS011;24805;55.852;37.644;2022-07-01T12:42:50;5.25;;;1.60;;
39050;SDS011;24805;55.852;37.644;2022-07-01T12:47:54;5.60;;;0.73;;
39050;SDS011;24805;55.852;37.644;2022-07-01T12:53:11;1.75;;;0.50;;
39050;SDS011;24805;55.852;37.644;2022-07-01T12:58:24;4.53;;;0.73;;
39050;SDS011;24805;55.852;37.644;2022-07-01T13:03:28;4.05;;;0.57;;
39050;SDS011;24805;55.852;37.644;2022-07-01T13:08:34;3.47;;;0.60;;
39050;SDS011;24805;55.852;37.644;2022-07-01T13:13:36;3.63;;;0.40;;
39050;SDS011;24805;55.852;37.644;2022-07-01T13:18:39;3.92;;;0.55;;
39050;SDS011;24805;55.852;37.644;2022-07-01T13:23:41;3.42;;;0.95;;
39050;SDS011;24805;55.852;37.644;2022-07-01T13:28:44;4.03;;;0.80;;
39050;SDS011;24805;55.852;37.644;2022-07-01T13:33:46;3.85;;;0.77;;
39050;SDS011;24805;55.852;37.644;2022-07-01T13:38:48;1.85;;;0.80;;
39050;SDS011;24805;55.852;37.644;2022-07-01T13:43:51;3.60;;;0.90;;
39050;SDS011;24805;55.852;37.644;2022-07-01T13:48:53;3.13;;;1.00;;
39050;SDS011;24805;55.852;37.644;2022-07-01T13:53:55;2.95;;;1.45;;
39050;SDS011;24805;55.852;37.644;2022-07-01T13:59:00;5.18;;;1.08;;
39050;SDS011;24805;55.852;37.644;2022-07-01T14:04:02;4.43;;;1.08;;
39050;SDS011;24805;55.852;37.644;2022-07-01T14:09:05;3.33;;;1.10;;
39050;SDS011;24805;55.852;37.644;2022-07-01T14:14:08;15.43;;;2.75;;
39050;SDS011;24805;55.852;37.644;2022-07-01T14:19:10;3.95;;;1.00;;
39050;SDS011;24805;55.852;37.644;2022-07-01T14:24:12;2.13;;;0.90;;
39050;SDS011;24805;55.852;37.644;2022-07-01T14:29:14;4.78;;;1.00;;
39050;SDS011;24805;55.852;37.644;2022-07-01T14:34:16;5.80;;;0.95;;
39050;SDS011;24805;55.852;37.644;2022-07-01T14:39:19;2.70;;;0.80;;
39050;SDS011;24805;55.852;37.644;2022-07-01T14:44:21;1.83;;;0.90;;
39050;SDS011;24805;55.852;37.644;2022-07-01T14:49:23;8.52;;;2.20;;
39050;SDS011;24805;55.852;37.644;2022-07-01T14:54:25;5.68;;;1.58;;
39050;SDS011;24805;55.852;37.644;2022-07-01T14:59:28;20.77;;;2.50;;
39050;SDS011;24805;55.852;37.644;2022-07-01T15:04:30;6.32;;;1.10;;
39050;SDS011;24805;55.852;37.644;2022-07-01T15:09:33;10.98;;;5.18;;
39050;SDS011;24805;55.852;37.644;2022-07-01T15:14:35;3.33;;;1.73;;
39050;SDS011;24805;55.852;37.644;2022-07-01T15:19:38;8.05;;;1.38;;
39050;SDS011;24805;55.852;37.644;2022-07-01T15:24:41;4.22;;;1.02;;
39050;SDS011;24805;55.852;37.644;2022-07-01T15:29:44;8.15;;;3.53;;
39050;SDS011;24805;55.852;37.644;2022-07-01T15:34:46;4.30;;;1.90;;
39050;SDS011;24805;55.852;37.644;2022-07-01T15:39:48;6.43;;;1.48;;
39050;SDS011;24805;55.852;37.644;2022-07-01T15:45:04;8.32;;;2.92;;
39050;SDS011;24805;55.852;37.644;2022-07-01T15:50:07;2.50;;;1.60;;
39050;SDS011;24805;55.852;37.644;2022-07-01T15:55:09;6.03;;;2.63;;
39050;SDS011;24805;55.852;37.644;2022-07-01T16:00:12;7.90;;;3.15;;
39050;SDS011;24805;55.852;37.644;2022-07-01T16:05:15;4.82;;;1.55;;
39050;SDS011;24805;55.852;37.644;2022-07-01T16:15:48;8.68;;;2.85;;
39050;SDS011;24805;55.852;37.644;2022-07-01T16:20:57;7.18;;;3.60;;
39050;SDS011;24805;55.852;37.644;2022-07-01T16:26:00;9.52;;;4.78;;
39050;SDS011;24805;55.852;37.644;2022-07-01T16:31:03;4.57;;;2.00;;
39050;SDS011;24805;55.852;37.644;2022-07-01T16:36:10;7.00;;;2.10;;
39050;SDS011;24805;55.852;37.644;2022-07-01T16:41:39;8.95;;;2.30;;
39050;SDS011;24805;55.852;37.644;2022-07-01T16:46:49;9.55;;;3.20;;
39050;SDS011;24805;55.852;37.644;2022-07-01T16:51:56;6.50;;;2.25;;
39050;SDS011;24805;55.852;37.644;2022-07-01T16:57:03;4.65;;;2.63;;
39050;SDS011;24805;55.852;37.644;2022-07-01T17:02:06;7.75;;;1.88;;
39050;SDS011;24805;55.852;37.644;2022-07-01T17:07:09;4.25;;;1.70;;
39050;SDS011;24805;55.852;37.644;2022-07-01T17:12:12;5.75;;;1.80;;
39050;SDS011;24805;55.852;37.644;2022-07-01T17:17:16;3.25;;;1.40;;
39050;SDS011;24805;55.852;37.644;2022-07-01T17:28:01;6.30;;;3.22;;
39050;SDS011;24805;55.852;37.644;2022-07-01T17:33:16;6.18;;;2.45;;
39050;SDS011;24805;55.852;37.644;2022-07-01T17:38:20;7.22;;;2.67;;
39050;SDS011;24805;55.852;37.644;2022-07-01T17:43:23;7.93;;;2.15;;
39050;SDS011;24805;55.852;37.644;2022-07-01T17:48:26;8.63;;;2.80;;
39050;SDS011;24805;55.852;37.644;2022-07-01T17:53:28;5.38;;;1.90;;
39050;SDS011;24805;55.852;37.644;2022-07-01T17:58:31;7.07;;;2.22;;
39050;SDS011;24805;55.852;37.644;2022-07-01T18:03:35;13.85;;;5.95;;
39050;SDS011;24805;55.852;37.644;2022-07-01T18:08:39;5.28;;;2.90;;
39050;SDS011;24805;55.852;37.644;2022-07-01T18:18:50;7.32;;;2.47;;
39050;SDS011;24805;55.852;37.644;2022-07-01T18:24:05;7.00;;;2.47;;
39050;SDS011;24805;55.852;37.644;2022-07-01T18:29:15;7.30;;;2.78;;
39050;SDS011;24805;55.852;37.644;2022-07-01T18:35:03;4.90;;;2.50;;
39050;SDS011;24805;55.852;37.644;2022-07-01T18:39:49;5.30;;;2.80;;
39050;SDS011;24805;55.852;37.644;2022-07-01T18:44:51;6.00;;;2.70;;
39050;SDS011;24805;55.852;37.644;2022-07-01T18:49:53;7.38;;;2.67;;
39050;SDS011;24805;55.852;37.644;2022-07-01T18:54:55;6.10;;;2.88;;
39050;SDS011;24805;55.852;37.644;2022-07-01T18:59:57;3.65;;;2.30;;
39050;SDS011;24805;55.852;37.644;2022-07-01T19:05:00;4.80;;;2.90;;
39050;SDS011;24805;55.852;37.644;2022-07-01T19:10:04;6.35;;;2.63;;
39050;SDS011;24805;55.852;37.644;2022-07-01T19:15:08;11.05;;;2.80;;
39050;SDS011;24805;55.852;37.644;2022-07-01T19:20:10;7.85;;;3.22;;
39050;SDS011;24805;55.852;37.644;2022-07-01T19:25:13;7.90;;;3.25;;
39050;SDS011;24805;55.852;37.644;2022-07-01T19:30:15;9.23;;;3.17;;
39050;SDS011;24805;55.852;37.644;2022-07-01T19:35:17;6.32;;;3.03;;
39050;SDS011;24805;55.852;37.644;2022-07-01T19:40:24;6.95;;;3.22;;
39050;SDS011;24805;55.852;37.644;2022-07-01T19:45:28;12.73;;;3.58;;
39050;SDS011;24805;55.852;37.644;2022-07-01T19:50:30;6.13;;;3.22;;
39050;SDS011;24805;55.852;37.644;2022-07-01T19:55:34;8.63;;;3.55;;
39050;SDS011;24805;55.852;37.644;2022-07-01T20:00:36;10.45;;;6.50;;
39050;SDS011;24805;55.852;37.644;2022-07-01T20:10:40;9.88;;;4.13;;
39050;SDS011;24805;55.852;37.644;2022-07-01T20:15:43;9.55;;;3.95;;
39050;SDS011;24805;55.852;37.644;2022-07-01T20:20:46;10.55;;;5.40;;
39050;SDS011;24805;55.852;37.644;2022-07-01T20:25:48;9.98;;;4.43;;
39050;SDS011;24805;55.852;37.644;2022-07-01T20:30:51;7.60;;;4.03;;
39050;SDS011;24805;55.852;37.644;2022-07-01T20:35:53;6.47;;;3.78;;
39050;SDS011;24805;55.852;37.644;2022-07-01T20:40:56;5.82;;;3.78;;
39050;SDS011;24805;55.852;37.644;2022-07-01T20:45:58;8.05;;;3.90;;
39050;SDS011;24805;55.852;37.644;2022-07-01T20:51:00;8.77;;;3.50;;
39050;SDS011;24805;55.852;37.644;2022-07-01T20:56:05;7.53;;;3.50;;
39050;SDS011;24805;55.852;37.644;2022-07-01T21:01:13;10.65;;;4.93;;
39050;SDS011;24805;55.852;37.644;2022-07-01T21:06:15;8.57;;;5.05;;
39050;SDS011;24805;55.852;37.644;2022-07-01T21:16:20;8.55;;;4.22;;
39050;SDS011;24805;55.852;37.644;2022-07-01T21:21:22;8.23;;;4.38;;
39050;SDS011;24805;55.852;37.644;2022-07-01T21:26:25;7.72;;;4.40;;
39050;SDS011;24805;55.852;37.644;2022-07-01T21:36:29;11.30;;;5.13;;
39050;SDS011;24805;55.852;37.644;2022-07-01T21:41:36;11.15;;;3.80;;
39050;SDS011;24805;55.852;37.644;2022-07-01T21:46:39;8.90;;;4.00;;
39050;SDS011;24805;55.852;37.644;2022-07-01T21:51:43;8.65;;;3.97;;
39050;SDS011;24805;55.852;37.644;2022-07-01T21:56:49;7.22;;;4.00;;
39050;SDS011;24805;55.852;37.644;2022-07-01T22:01:54;10.85;;;4.47;;
39050;SDS011;24805;55.852;37.644;2022-07-01T22:06:56;10.57;;;4.60;;
39050;SDS011;24805;55.852;37.644;2022-07-01T22:12:03;9.43;;;5.47;;
39050;SDS011;24805;55.852;37.644;2022-07-01T22:17:08;12.70;;;5.05;;
39050;SDS011;24805;55.852;37.644;2022-07-01T22:22:15;13.23;;;6.13;;
39050;SDS011;24805;55.852;37.644;2022-07-01T22:27:30;11.80;;;5.32;;
39050;SDS011;24805;55.852;37.644;2022-07-01T22:32:33;9.70;;;4.78;;
39050;SDS011;24805;55.852;37.644;2022-07-01T22:37:35;12.00;;;5.55;;
39050;SDS011;24805;55.852;37.644;2022-07-01T22:42:45;14.73;;;5.38;;
39050;SDS011;24805;55.852;37.644;2022-07-01T22:47:49;11.63;;;5.10;;
39050;SDS011;24805;55.852;37.644;2022-07-01T22:53:04;10.98;;;5.22;;
39050;SDS011;24805;55.852;37.644;2022-07-01T22:58:20;15.40;;;5.95;;
39050;SDS011;24805;55.852;37.644;2022-07-01T23:03:34;34.05;;;23.05;;
39050;SDS011;24805;55.852;37.644;2022-07-01T23:08:44;11.32;;;5.53;;
39050;SDS011;24805;55.852;37.644;2022-07-01T23:14:03;10.00;;;5.28;;
39050;SDS011;24805;55.852;37.644;2022-07-01T23:19:29;16.17;;;5.13;;
39050;SDS011;24805;55.852;37.644;2022-07-01T23:24:33;11.00;;;6.07;;
39050;SDS011;24805;55.852;37.644;2022-07-01T23:29:41;11.10;;;5.38;;
39050;SDS011;24805;55.852;37.644;2022-07-01T23:34:45;13.52;;;5.28;;
39050;SDS011;24805;55.852;37.644;2022-07-01T23:39:50;13.95;;;5.95;;
39050;SDS011;24805;55.852;37.644;2022-07-01T23:44:54;15.68;;;5.88;;
39050;SDS011;24805;55.852;37.644;2022-07-01T23:54:58;12.35;;;5.60;;
